Time;durP1;ratioP1;P1;durP2;ratioP2;P2;SDS_P1;SDS_P2;PMS_P1;PMS_P2;Temp;Humidity;BMP_temperature;BMP_pressure;BME280_temperature;BME280_humidity;BME280_pressure;Samples;Min_cycle;Max_cycle;Signal;HPM_P1;HPM_P2
2022/11/17 00:01:09;;;;;;;;;;;11.80;99.90;;;;;;5053343;28;19959;-75
2022/11/17 00:03:34;;;;;;;;;;;11.80;99.90;;;;;;5053949;28;20313;-74
2022/11/17 00:06:03;;;;;;;;;;;11.70;99.90;;;;;;5053257;28;19909;-74
2022/11/17 00:08:29;;;;;;;;;;;11.70;99.90;;;;;;5053338;28;19959;-72
2022/11/17 00:10:57;;;;;;;;;;;11.60;99.90;;;;;;5056845;28;19908;-73
2022/11/17 00:16:10;;;;;;;;;;;11.60;99.90;;;;;;5057066;28;20358;-74
2022/11/17 00:21:22;;;;;;;;;;;11.60;99.90;;;;;;5057513;28;19915;-74
2022/11/17 00:23:48;;;;;;;;;;;11.60;99.90;;;;;;5057128;28;19916;-73
2022/11/17 00:26:15;;;;;;;;;;;11.50;99.90;;;;;;5057287;28;20373;-74
2022/11/17 00:28:41;;;;;;;;;;;11.50;99.90;;;;;;5057349;28;19915;-73
2022/11/17 00:34:05;;;;;;;;;;;11.60;99.90;;;;;;5057306;28;19920;-73
2022/11/17 00:36:35;;;;;;;;;;;11.60;99.90;;;;;;5057476;28;19909;-73
2022/11/17 00:39:00;;;;;;;;;;;11.60;99.90;;;;;;5056772;28;19909;-74
2022/11/17 00:41:27;;;;;;;;;;;11.60;99.90;;;;;;5056792;28;19958;-73
2022/11/17 00:43:53;;;;;;;;;;;11.60;99.90;;;;;;5056671;28;20051;-74
2022/11/17 00:46:18;;;;;;;;;;;11.60;99.90;;;;;;5056908;28;19971;-74
2022/11/17 00:48:44;;;;;;;;;;;11.50;99.90;;;;;;5056651;28;19932;-73
2022/11/17 00:51:09;;;;;;;;;;;11.50;99.90;;;;;;5056428;28;19966;-72
2022/11/17 00:53:35;;;;;;;;;;;11.50;99.90;;;;;;5056887;28;19916;-72
2022/11/17 00:56:00;;;;;;;;;;;11.50;99.90;;;;;;5056741;28;19909;-73
2022/11/17 00:58:26;;;;;;;;;;;11.50;99.90;;;;;;5056484;28;20370;-73
2022/11/17 01:00:51;;;;;;;;;;;11.50;99.90;;;;;;5056748;28;20275;-74
2022/11/17 01:03:17;;;;;;;;;;;11.50;99.90;;;;;;5056363;28;19951;-72
2022/11/17 01:05:42;;;;;;;;;;;11.50;99.90;;;;;;5056363;28;19917;-73
2022/11/17 01:08:08;;;;;;;;;;;11.50;99.90;;;;;;5056491;28;19917;-72
2022/11/17 01:10:34;;;;;;;;;;;11.50;99.90;;;;;;5056278;28;19939;-73
2022/11/17 01:12:59;;;;;;;;;;;11.50;99.90;;;;;;5056293;28;19909;-73
2022/11/17 01:15:25;;;;;;;;;;;11.50;99.90;;;;;;5056184;28;19909;-73
2022/11/17 01:17:50;;;;;;;;;;;11.50;99.90;;;;;;5056132;28;20397;-74
2022/11/17 01:20:16;;;;;;;;;;;11.60;99.90;;;;;;5056647;28;19909;-73
2022/11/17 01:22:41;;;;;;;;;;;11.60;99.90;;;;;;5055328;28;20289;-74
2022/11/17 01:25:07;;;;;;;;;;;11.60;99.90;;;;;;5056026;28;19916;-74
2022/11/17 01:27:32;;;;;;;;;;;11.60;99.90;;;;;;5055828;28;19924;-74
2022/11/17 01:29:58;;;;;;;;;;;11.60;99.90;;;;;;5055898;28;19909;-73
2022/11/17 01:32:23;;;;;;;;;;;11.60;99.90;;;;;;5056175;28;20432;-75
2022/11/17 01:34:49;;;;;;;;;;;11.50;99.90;;;;;;5055797;28;19909;-74
2022/11/17 01:37:17;;;;;;;;;;;11.50;99.90;;;;;;5056062;28;20050;-74
2022/11/17 01:39:43;;;;;;;;;;;11.60;99.90;;;;;;5055682;28;20079;-74
2022/11/17 01:42:17;;;;;;;;;;;11.60;99.90;;;;;;5056258;28;20075;-74
2022/11/17 01:44:47;;;;;;;;;;;11.60;99.90;;;;;;5055541;28;19944;-74
2022/11/17 01:47:16;;;;;;;;;;;11.60;99.90;;;;;;5055483;28;20375;-73
2022/11/17 01:49:41;;;;;;;;;;;11.60;99.90;;;;;;5055834;28;19909;-73
2022/11/17 01:52:08;;;;;;;;;;;11.60;99.90;;;;;;5055321;28;19928;-73
2022/11/17 01:54:35;;;;;;;;;;;11.60;99.90;;;;;;5037604;28;19909;-73
2022/11/17 01:57:04;;;;;;;;;;;11.60;99.90;;;;;;5056192;28;20379;-74
2022/11/17 01:59:36;;;;;;;;;;;11.60;99.90;;;;;;5055320;28;19909;-73
2022/11/17 02:02:01;;;;;;;;;;;11.60;99.90;;;;;;5037184;28;19909;-74
2022/11/17 02:04:32;;;;;;;;;;;11.70;99.90;;;;;;5037340;28;19916;-73
2022/11/17 02:07:08;;;;;;;;;;;11.70;99.90;;;;;;5055700;28;20355;-74
2022/11/17 02:09:35;;;;;;;;;;;11.70;99.90;;;;;;5055192;28;20003;-73
2022/11/17 02:12:01;;;;;;;;;;;11.70;99.90;;;;;;5037269;28;20321;-73
2022/11/17 02:14:27;;;;;;;;;;;11.70;99.90;;;;;;5055067;28;19916;-74
2022/11/17 02:16:52;;;;;;;;;;;11.70;99.90;;;;;;5055045;28;19912;-73
2022/11/17 02:19:19;;;;;;;;;;;11.60;99.90;;;;;;5055017;28;19916;-73
2022/11/17 02:21:51;;;;;;;;;;;11.60;99.90;;;;;;5055289;28;19909;-73
2022/11/17 02:24:35;;;;;;;;;;;11.60;99.90;;;;;;5036928;28;19916;-73
2022/11/17 02:27:01;;;;;;;;;;;11.60;99.90;;;;;;5054726;28;19913;-73
2022/11/17 02:29:29;;;;;;;;;;;11.60;99.90;;;;;;5054747;28;20335;-73
2022/11/17 02:31:54;;;;;;;;;;;11.60;99.90;;;;;;5055242;28;19909;-73
2022/11/17 02:34:38;;;;;;;;;;;11.60;99.90;;;;;;5053623;28;20003;-73
2022/11/17 02:37:27;;;;;;;;;;;11.50;99.90;;;;;;5055132;28;19908;-74
2022/11/17 02:40:01;;;;;;;;;;;11.60;99.90;;;;;;5017241;28;19931;-73
2022/11/17 02:45:23;;;;;;;;;;;11.50;99.90;;;;;;5054794;28;19917;-72
2022/11/17 02:47:49;;;;;;;;;;;11.50;99.90;;;;;;5054331;28;20362;-73
2022/11/17 02:50:17;;;;;;;;;;;11.50;99.90;;;;;;5054700;28;19913;-75
2022/11/17 02:52:42;;;;;;;;;;;11.50;99.90;;;;;;5054188;28;20028;-73
2022/11/17 02:55:09;;;;;;;;;;;11.50;99.90;;;;;;5054832;28;20375;-75
2022/11/17 02:57:36;;;;;;;;;;;11.50;99.90;;;;;;5054742;28;19995;-73
2022/11/17 03:00:07;;;;;;;;;;;11.40;99.90;;;;;;5036338;28;19915;-73
2022/11/17 03:02:41;;;;;;;;;;;11.40;99.90;;;;;;5054535;28;19913;-74
2022/11/17 03:05:13;;;;;;;;;;;11.30;99.90;;;;;;5054460;28;19909;-74
2022/11/17 03:07:41;;;;;;;;;;;11.30;99.90;;;;;;5054282;28;19962;-73
2022/11/17 03:10:09;;;;;;;;;;;11.30;99.90;;;;;;5054027;28;19909;-74
2022/11/17 03:12:35;;;;;;;;;;;11.30;99.90;;;;;;5036055;28;20314;-73
2022/11/17 03:15:11;;;;;;;;;;;11.20;99.90;;;;;;5054503;28;19954;-74
2022/11/17 03:17:43;;;;;;;;;;;11.10;99.90;;;;;;5053908;28;19916;-73
2022/11/17 03:20:08;;;;;;;;;;;11.10;99.90;;;;;;5054491;28;20295;-74
2022/11/17 03:22:50;;;;;;;;;;;11.10;99.90;;;;;;5036012;28;19909;-73
2022/11/17 03:25:18;;;;;;;;;;;11.20;99.90;;;;;;5054423;28;19909;-74
2022/11/17 03:27:48;;;;;;;;;;;11.20;99.90;;;;;;5053718;28;19917;-74
2022/11/17 03:30:14;;;;;;;;;;;11.20;99.90;;;;;;5053771;28;19916;-73
2022/11/17 03:32:40;;;;;;;;;;;11.20;99.90;;;;;;5053637;28;19916;-74
2022/11/17 03:35:11;;;;;;;;;;;11.30;99.90;;;;;;5053695;28;19909;-74
2022/11/17 03:37:40;;;;;;;;;;;11.30;99.90;;;;;;5054266;28;20351;-73
2022/11/17 03:40:10;;;;;;;;;;;11.30;99.90;;;;;;5053614;28;20263;-73
2022/11/17 03:42:38;;;;;;;;;;;11.30;99.90;;;;;;5053531;28;20000;-73
2022/11/17 03:45:08;;;;;;;;;;;11.30;99.90;;;;;;5053555;28;20446;-74
2022/11/17 03:47:34;;;;;;;;;;;11.30;99.90;;;;;;5053720;28;20012;-74
2022/11/17 03:50:17;;;;;;;;;;;11.30;99.90;;;;;;5053532;28;19947;-74
2022/11/17 03:52:43;;;;;;;;;;;11.30;99.90;;;;;;5053472;28;19925;-74
2022/11/17 03:55:09;;;;;;;;;;;11.30;99.90;;;;;;5054068;28;19908;-74
2022/11/17 03:57:56;;;;;;;;;;;11.20;99.90;;;;;;5054359;28;20428;-74
2022/11/17 04:00:21;;;;;;;;;;;11.30;99.90;;;;;;5053955;28;19967;-74
2022/11/17 04:02:48;;;;;;;;;;;11.30;99.90;;;;;;5053395;28;19909;-75
2022/11/17 04:05:14;;;;;;;;;;;11.20;99.90;;;;;;5053620;28;20293;-73
2022/11/17 04:07:41;;;;;;;;;;;11.20;99.90;;;;;;5053248;28;20359;-74
2022/11/17 04:10:11;;;;;;;;;;;11.20;99.90;;;;;;5053328;28;19916;-74
2022/11/17 04:18:05;;;;;;;;;;;11.10;99.90;;;;;;5053251;28;19939;-73
2022/11/17 04:20:34;;;;;;;;;;;11.10;99.90;;;;;;5053173;28;19909;-73
2022/11/17 04:23:11;;;;;;;;;;;11.00;99.90;;;;;;5053131;28;19909;-74
2022/11/17 04:28:37;;;;;;;;;;;11.10;99.90;;;;;;5053427;28;19920;-74
2022/11/17 04:31:02;;;;;;;;;;;11.10;99.90;;;;;;5053473;28;19908;-72
2022/11/17 04:33:28;;;;;;;;;;;11.10;99.90;;;;;;5053148;28;19916;-73
2022/11/17 04:35:54;;;;;;;;;;;11.10;99.90;;;;;;5053063;28;20302;-74
2022/11/17 04:38:19;;;;;;;;;;;11.10;99.90;;;;;;5053332;28;19909;-73
2022/11/17 04:41:52;;;;;;;;;;;11.10;99.90;;;;;;5053001;28;19976;-74
2022/11/17 04:43:30;;;;;;;;;;;11.00;99.90;;;;;;5052608;28;20377;-74
2022/11/17 04:45:59;;;;;;;;;;;11.00;99.90;;;;;;5035109;28;19916;-74
2022/11/17 04:48:25;;;;;;;;;;;11.00;99.90;;;;;;5053467;28;20259;-73
2022/11/17 04:50:57;;;;;;;;;;;11.00;99.90;;;;;;5052908;28;19932;-73
2022/11/17 04:53:23;;;;;;;;;;;10.90;99.90;;;;;;5052476;28;20000;-73
2022/11/17 04:55:48;;;;;;;;;;;10.90;99.90;;;;;;5052966;28;20381;-74
2022/11/17 04:58:14;;;;;;;;;;;10.90;99.90;;;;;;5057636;28;19915;-74
2022/11/17 05:00:40;;;;;;;;;;;11.00;99.90;;;;;;5056489;28;20390;-74
2022/11/17 05:03:05;;;;;;;;;;;11.00;99.90;;;;;;5056436;28;19909;-74
2022/11/17 05:05:31;;;;;;;;;;;11.00;99.90;;;;;;5056669;28;20050;-74
2022/11/17 05:07:56;;;;;;;;;;;11.10;99.90;;;;;;5056312;28;19913;-73
2022/11/17 05:13:21;;;;;;;;;;;11.10;99.90;;;;;;5056015;28;19916;-73
2022/11/17 05:18:37;;;;;;;;;;;11.10;99.90;;;;;;5056525;28;20296;-75
2022/11/17 05:21:04;;;;;;;;;;;11.10;99.90;;;;;;5056141;28;19913;-74
2022/11/17 05:26:13;;;;;;;;;;;11.10;99.90;;;;;;5056259;28;19919;-73
2022/11/17 05:28:39;;;;;;;;;;;11.20;99.90;;;;;;5056524;28;20278;-74
2022/11/17 05:31:04;;;;;;;;;;;11.20;99.90;;;;;;5055909;28;19913;-74
2022/11/17 05:33:30;;;;;;;;;;;11.20;99.90;;;;;;5055873;28;19916;-73
2022/11/17 05:35:56;;;;;;;;;;;11.20;99.90;;;;;;5056388;28;19908;-73
2022/11/17 05:38:21;;;;;;;;;;;11.20;99.90;;;;;;5055755;28;19959;-73
2022/11/17 05:40:46;;;;;;;;;;;11.20;99.90;;;;;;5055694;28;19915;-74
2022/11/17 05:43:12;;;;;;;;;;;11.20;99.90;;;;;;5055638;28;19970;-74
2022/11/17 05:45:37;;;;;;;;;;;11.20;99.90;;;;;;5055927;28;19941;-73
2022/11/17 05:48:03;;;;;;;;;;;11.10;99.90;;;;;;5055491;28;20389;-75
2022/11/17 05:50:29;;;;;;;;;;;11.00;99.90;;;;;;5055498;28;19915;-73
2022/11/17 05:52:54;;;;;;;;;;;11.00;99.90;;;;;;5055411;28;19920;-73
2022/11/17 05:55:20;;;;;;;;;;;11.00;99.90;;;;;;5055432;28;19909;-73
2022/11/17 05:57:45;;;;;;;;;;;10.90;99.90;;;;;;5056179;28;19909;-73
2022/11/17 06:00:11;;;;;;;;;;;10.90;99.90;;;;;;5055384;28;19959;-73
2022/11/17 06:02:39;;;;;;;;;;;10.90;99.90;;;;;;5055889;28;20363;-73
2022/11/17 06:05:04;;;;;;;;;;;10.80;99.90;;;;;;5055290;28;19913;-73
2022/11/17 06:07:30;;;;;;;;;;;10.80;99.90;;;;;;5054974;28;20350;-73
2022/11/17 06:09:55;;;;;;;;;;;10.80;99.90;;;;;;5055200;28;19916;-73
2022/11/17 06:12:21;;;;;;;;;;;10.80;99.90;;;;;;5055660;28;19916;-73
2022/11/17 06:14:47;;;;;;;;;;;10.70;99.90;;;;;;5055348;28;19916;-75
2022/11/17 06:17:21;;;;;;;;;;;10.70;99.90;;;;;;5055028;28;19916;-73
2022/11/17 06:19:49;;;;;;;;;;;10.80;99.90;;;;;;5055309;28;19913;-75
2022/11/17 06:22:15;;;;;;;;;;;10.70;99.90;;;;;;5054914;28;20003;-72
2022/11/17 06:24:42;;;;;;;;;;;10.70;99.90;;;;;;5054885;28;20358;-73
2022/11/17 06:27:08;;;;;;;;;;;10.60;99.90;;;;;;5055374;28;19957;-73
2022/11/17 06:29:34;;;;;;;;;;;10.60;99.90;;;;;;5054782;28;19915;-73
2022/11/17 06:32:00;;;;;;;;;;;10.60;99.90;;;;;;5055055;28;19910;-74
2022/11/17 06:34:26;;;;;;;;;;;10.60;99.90;;;;;;5055005;28;19935;-73
2022/11/17 06:36:52;;;;;;;;;;;10.60;99.90;;;;;;5054924;28;19931;-73
2022/11/17 06:39:18;;;;;;;;;;;10.60;99.90;;;;;;5054557;28;19909;-72
2022/11/17 06:41:43;;;;;;;;;;;10.50;99.90;;;;;;5054522;28;19913;-72
2022/11/17 06:44:09;;;;;;;;;;;10.50;99.90;;;;;;5054499;28;19955;-74
2022/11/17 06:46:37;;;;;;;;;;;10.60;99.90;;;;;;5054651;28;19913;-74
2022/11/17 06:49:05;;;;;;;;;;;10.50;99.90;;;;;;5054412;28;20067;-75
2022/11/17 06:51:31;;;;;;;;;;;10.50;99.90;;;;;;5054452;28;20039;-73
2022/11/17 06:53:57;;;;;;;;;;;10.40;99.90;;;;;;5054317;28;19935;-73
2022/11/17 06:56:22;;;;;;;;;;;10.40;99.90;;;;;;5054592;28;19913;-74
2022/11/17 06:58:48;;;;;;;;;;;10.40;99.90;;;;;;5054766;28;20010;-74
2022/11/17 07:01:14;;;;;;;;;;;10.40;99.90;;;;;;5054532;28;19963;-74
2022/11/17 07:03:41;;;;;;;;;;;10.40;99.90;;;;;;5054489;28;19913;-74
2022/11/17 07:06:08;;;;;;;;;;;10.40;99.90;;;;;;5036251;28;19909;-73
2022/11/17 07:08:34;;;;;;;;;;;10.30;99.90;;;;;;5054022;28;19916;-74
2022/11/17 07:11:01;;;;;;;;;;;10.40;99.90;;;;;;5054064;28;20428;-74
2022/11/17 07:13:26;;;;;;;;;;;10.30;99.90;;;;;;5036128;28;19909;-74
2022/11/17 07:15:52;;;;;;;;;;;10.30;99.90;;;;;;5053983;28;19909;-73
2022/11/17 07:18:18;;;;;;;;;;;10.30;99.90;;;;;;5054226;28;20378;-73
2022/11/17 07:20:44;;;;;;;;;;;10.30;99.90;;;;;;5053423;28;19921;-74
2022/11/17 07:23:10;;;;;;;;;;;10.30;99.90;;;;;;5053874;28;19913;-74
2022/11/17 07:25:35;;;;;;;;;;;10.30;99.90;;;;;;5054109;28;20284;-73
2022/11/17 07:28:01;;;;;;;;;;;10.30;99.90;;;;;;5053642;28;20283;-74
2022/11/17 07:30:27;;;;;;;;;;;10.30;99.90;;;;;;5054274;28;19909;-74
2022/11/17 07:32:52;;;;;;;;;;;10.30;99.90;;;;;;5053676;28;19910;-73
2022/11/17 07:35:18;;;;;;;;;;;10.30;99.90;;;;;;5053707;28;19916;-72
2022/11/17 07:37:44;;;;;;;;;;;10.20;99.90;;;;;;5054222;28;19919;-75
2022/11/17 07:40:10;;;;;;;;;;;10.20;99.90;;;;;;5053941;28;19956;-73
2022/11/17 07:42:35;;;;;;;;;;;10.30;99.90;;;;;;5053785;28;19944;-72
2022/11/17 07:45:00;;;;;;;;;;;10.20;99.90;;;;;;5053803;28;20015;-74
2022/11/17 07:47:26;;;;;;;;;;;10.30;99.90;;;;;;5053472;28;20007;-73
2022/11/17 07:49:51;;;;;;;;;;;10.30;99.90;;;;;;5053510;28;19945;-74
2022/11/17 07:52:17;;;;;;;;;;;10.30;99.90;;;;;;5053386;28;19920;-82
2022/11/17 07:54:43;;;;;;;;;;;10.30;99.90;;;;;;5061178;28;19913;-82
2022/11/17 07:57:08;;;;;;;;;;;10.40;99.90;;;;;;5056049;28;20419;-81
2022/11/17 07:59:34;;;;;;;;;;;10.40;99.90;;;;;;5058984;28;20318;-83
2022/11/17 08:01:59;;;;;;;;;;;10.40;99.90;;;;;;5052861;28;19919;-83
2022/11/17 08:04:25;;;;;;;;;;;10.40;99.90;;;;;;5053916;28;20046;-81
2022/11/17 08:06:50;;;;;;;;;;;10.40;99.90;;;;;;5035415;28;19919;-81
2022/11/17 08:09:16;;;;;;;;;;;10.40;99.90;;;;;;5052995;28;20310;-83
2022/11/17 08:11:41;;;;;;;;;;;10.40;99.90;;;;;;5045853;28;19913;-76
2022/11/17 08:14:07;;;;;;;;;;;10.50;99.90;;;;;;5054809;28;19913;-80
2022/11/17 08:16:32;;;;;;;;;;;10.50;99.90;;;;;;5062766;28;19959;-79
2022/11/17 08:18:58;;;;;;;;;;;10.50;99.90;;;;;;5072242;28;19908;-80
2022/11/17 08:21:24;;;;;;;;;;;10.60;99.90;;;;;;5055655;28;20382;-80
2022/11/17 08:23:53;;;;;;;;;;;10.60;99.90;;;;;;5053194;28;19916;-81
2022/11/17 08:26:19;;;;;;;;;;;10.70;99.90;;;;;;5053544;28;19916;-82
2022/11/17 08:28:46;;;;;;;;;;;10.70;99.90;;;;;;5073298;28;19908;-81
2022/11/17 08:31:11;;;;;;;;;;;10.80;99.90;;;;;;5066912;28;19908;-83
2022/11/17 08:33:37;;;;;;;;;;;10.80;99.90;;;;;;5057269;28;19916;-82
2022/11/17 08:36:05;;;;;;;;;;;10.90;99.90;;;;;;5039281;28;19994;-81
2022/11/17 08:38:31;;;;;;;;;;;10.90;99.90;;;;;;5057210;28;19908;-82
2022/11/17 08:40:58;;;;;;;;;;;10.90;99.90;;;;;;5056895;28;19915;-80
2022/11/17 08:43:23;;;;;;;;;;;10.90;99.90;;;;;;5056719;28;19939;-82
2022/11/17 08:45:49;;;;;;;;;;;11.00;99.90;;;;;;5056838;28;19909;-83
2022/11/17 08:48:14;;;;;;;;;;;11.00;99.90;;;;;;5056655;28;19912;-81
2022/11/17 08:50:40;;;;;;;;;;;11.10;99.90;;;;;;5059601;28;19912;-82
2022/11/17 08:53:09;;;;;;;;;;;11.10;99.90;;;;;;5070085;28;20385;-83
2022/11/17 08:55:38;;;;;;;;;;;11.10;99.90;;;;;;5066517;28;19991;-80
2022/11/17 08:58:04;;;;;;;;;;;11.20;99.90;;;;;;5065598;28;19923;-83
2022/11/17 09:00:29;;;;;;;;;;;11.30;99.90;;;;;;5076515;28;19909;-83
2022/11/17 09:02:55;;;;;;;;;;;11.40;99.90;;;;;;5076463;28;19908;-83
2022/11/17 09:05:20;;;;;;;;;;;11.60;99.90;;;;;;5076701;28;19908;-80
2022/11/17 09:07:46;;;;;;;;;;;11.90;99.90;;;;;;5061184;28;20018;-82
2022/11/17 09:10:11;;;;;;;;;;;11.90;99.90;;;;;;5063958;28;19913;-79
2022/11/17 09:12:37;;;;;;;;;;;12.10;99.90;;;;;;5073841;28;19916;-78
2022/11/17 09:15:03;;;;;;;;;;;12.50;99.90;;;;;;5071708;28;19908;-74
2022/11/17 09:17:29;;;;;;;;;;;12.90;99.90;;;;;;5056181;28;19908;-74
2022/11/17 09:19:55;;;;;;;;;;;13.30;99.90;;;;;;5056396;28;20405;-73
2022/11/17 09:22:20;;;;;;;;;;;13.50;99.90;;;;;;5066715;28;19917;-73
2022/11/17 09:24:46;;;;;;;;;;;13.60;99.90;;;;;;5056635;28;19956;-81
2022/11/17 09:27:12;;;;;;;;;;;13.80;99.90;;;;;;5058143;28;19924;-78
2022/11/17 09:29:38;;;;;;;;;;;13.90;99.90;;;;;;5067997;28;19913;-78
2022/11/17 09:32:03;;;;;;;;;;;14.10;99.90;;;;;;5068488;28;20004;-77
2022/11/17 09:34:29;;;;;;;;;;;14.10;99.90;;;;;;5066720;28;19979;-77
2022/11/17 09:36:54;;;;;;;;;;;14.00;99.90;;;;;;5038628;28;19962;-75
2022/11/17 09:39:20;;;;;;;;;;;14.00;99.90;;;;;;5055895;28;19948;-76
2022/11/17 09:41:48;;;;;;;;;;;13.90;99.90;;;;;;5055640;28;19909;-75
2022/11/17 09:44:31;;;;;;;;;;;13.70;99.90;;;;;;5055605;28;19919;-78
2022/11/17 09:47:04;;;;;;;;;;;13.50;99.90;;;;;;5055904;28;20065;-77
2022/11/17 09:49:36;;;;;;;;;;;13.70;99.90;;;;;;5061704;28;20313;-77
2022/11/17 09:52:17;;;;;;;;;;;13.90;99.90;;;;;;5083766;28;19920;-77
2022/11/17 09:54:46;;;;;;;;;;;14.10;99.90;;;;;;5080659;28;19965;-81
2022/11/17 09:57:21;;;;;;;;;;;13.90;99.90;;;;;;5075479;28;19908;-79
2022/11/17 09:59:55;;;;;;;;;;;13.70;99.90;;;;;;5075404;28;19915;-77
2022/11/17 10:02:20;;;;;;;;;;;13.90;99.90;;;;;;5075736;28;19912;-77
2022/11/17 10:04:47;;;;;;;;;;;14.00;99.90;;;;;;5075411;28;20344;-77
2022/11/17 10:07:12;;;;;;;;;;;14.10;99.90;;;;;;5056878;28;19920;-78
2022/11/17 10:09:40;;;;;;;;;;;14.30;99.90;;;;;;5075294;28;19967;-76
2022/11/17 10:12:15;;;;;;;;;;;14.30;99.90;;;;;;5075152;28;19916;-80
2022/11/17 10:14:40;;;;;;;;;;;14.40;99.90;;;;;;5075201;28;19908;-79
2022/11/17 10:17:07;;;;;;;;;;;14.40;99.90;;;;;;5075186;28;19908;-83
2022/11/17 10:19:36;;;;;;;;;;;14.40;99.90;;;;;;5085665;28;19992;-79
2022/11/17 10:22:05;;;;;;;;;;;14.40;99.90;;;;;;5079105;28;19913;-75
2022/11/17 10:24:31;;;;;;;;;;;14.50;99.90;;;;;;5090805;28;19912;-81
2022/11/17 10:26:56;;;;;;;;;;;14.60;99.90;;;;;;5081858;28;20340;-81
2022/11/17 10:29:22;;;;;;;;;;;14.80;99.90;;;;;;5074192;28;19913;-79
2022/11/17 10:31:47;;;;;;;;;;;14.70;99.90;;;;;;5057019;28;19909;-80
2022/11/17 10:34:30;;;;;;;;;;;14.70;99.90;;;;;;5074838;28;20007;-79
2022/11/17 10:37:00;;;;;;;;;;;14.80;99.90;;;;;;5056834;28;20361;-79
2022/11/17 10:39:33;;;;;;;;;;;14.70;99.90;;;;;;5074733;28;19916;-81
2022/11/17 10:42:01;;;;;;;;;;;14.70;99.90;;;;;;5056402;28;19944;-79
2022/11/17 10:44:29;;;;;;;;;;;14.70;99.90;;;;;;5094482;28;20007;-76
2022/11/17 10:46:55;;;;;;;;;;;14.70;99.90;;;;;;5076612;28;20289;-79
2022/11/17 10:49:23;;;;;;;;;;;14.70;99.90;;;;;;5095002;28;19908;-79
2022/11/17 10:52:02;;;;;;;;;;;14.80;99.90;;;;;;5094487;28;20396;-81
2022/11/17 10:54:27;;;;;;;;;;;14.80;99.90;;;;;;5094151;28;19930;-82
2022/11/17 10:56:54;;;;;;;;;;;14.90;99.90;;;;;;5076349;28;19912;-78
2022/11/17 10:59:32;;;;;;;;;;;14.80;99.90;;;;;;5094595;28;20270;-81
2022/11/17 11:02:17;;;;;;;;;;;14.80;99.90;;;;;;5086509;28;19919;-79
2022/11/17 11:04:43;;;;;;;;;;;14.80;99.90;;;;;;5074080;28;19915;-83
2022/11/17 11:07:08;;;;;;;;;;;14.60;99.90;;;;;;5074525;28;19920;-79
2022/11/17 11:09:43;;;;;;;;;;;14.50;99.90;;;;;;5073815;28;19912;-80
2022/11/17 11:12:14;;;;;;;;;;;14.50;99.90;;;;;;5074146;28;19912;-79
2022/11/17 11:14:47;;;;;;;;;;;14.40;99.90;;;;;;5074333;28;19909;-78
2022/11/17 11:17:14;;;;;;;;;;;14.40;99.90;;;;;;5073986;28;19908;-79
2022/11/17 11:19:40;;;;;;;;;;;14.40;99.90;;;;;;5073683;28;19934;-82
2022/11/17 11:22:09;;;;;;;;;;;14.40;99.90;;;;;;5080199;28;19913;-80
2022/11/17 11:24:43;;;;;;;;;;;14.50;99.90;;;;;;5086487;28;20381;-79
2022/11/17 11:27:25;;;;;;;;;;;14.50;99.90;;;;;;5081110;28;20417;-79
2022/11/17 11:29:50;;;;;;;;;;;14.60;99.90;;;;;;5079838;28;19912;-78
2022/11/17 11:32:19;;;;;;;;;;;14.40;99.90;;;;;;5065412;28;19966;-74
2022/11/17 11:35:20;;;;;;;;;;;14.30;99.90;;;;;;5093926;28;20386;-73
2022/11/17 11:38:06;;;;;;;;;;;14.20;99.90;;;;;;5012547;28;20402;-73
2022/11/17 11:40:36;;;;;;;;;;;14.30;99.90;;;;;;5069907;28;19908;-73
2022/11/17 11:43:04;;;;;;;;;;;14.20;99.90;;;;;;5093763;28;19955;-73
2022/11/17 11:45:48;;;;;;;;;;;14.10;99.90;;;;;;5093823;28;19908;-73
2022/11/17 11:48:15;;;;;;;;;;;13.90;99.90;;;;;;5094001;28;19922;-72
2022/11/17 11:51:02;;;;;;;;;;;13.80;99.90;;;;;;5093746;28;19998;-73
2022/11/17 11:53:28;;;;;;;;;;;13.80;99.90;;;;;;5094045;28;19920;-73
2022/11/17 11:56:05;;;;;;;;;;;13.80;99.90;;;;;;5093690;28;19916;-72
2022/11/17 11:58:31;;;;;;;;;;;13.90;99.90;;;;;;5094485;28;19908;-73
2022/11/17 12:01:17;;;;;;;;;;;14.00;99.90;;;;;;5093944;28;19908;-73
2022/11/17 12:04:09;;;;;;;;;;;14.10;99.90;;;;;;5075259;28;19908;-73
2022/11/17 12:06:40;;;;;;;;;;;14.10;99.90;;;;;;5096853;28;19995;-73
2022/11/17 12:09:24;;;;;;;;;;;14.10;99.90;;;;;;5098037;28;20273;-72
2022/11/17 12:12:00;;;;;;;;;;;14.00;99.90;;;;;;5098280;28;19957;-73
2022/11/17 12:14:34;;;;;;;;;;;14.00;99.90;;;;;;5097763;28;19953;-73
2022/11/17 12:17:04;;;;;;;;;;;14.00;99.90;;;;;;5079183;28;19999;-75
2022/11/17 12:19:45;;;;;;;;;;;14.00;99.90;;;;;;5097893;28;19919;-74
2022/11/17 12:22:29;;;;;;;;;;;14.00;99.90;;;;;;5097572;28;19915;-72
2022/11/17 12:24:59;;;;;;;;;;;14.00;99.90;;;;;;5079306;28;19908;-73
2022/11/17 12:27:30;;;;;;;;;;;14.00;99.90;;;;;;5097639;28;19916;-73
2022/11/17 12:29:56;;;;;;;;;;;14.10;99.90;;;;;;5097399;28;19991;-74
2022/11/17 12:32:40;;;;;;;;;;;14.00;99.90;;;;;;5097383;28;19951;-73
2022/11/17 12:35:24;;;;;;;;;;;14.00;99.90;;;;;;5079077;28;19915;-73
2022/11/17 12:38:08;;;;;;;;;;;13.90;99.90;;;;;;5097243;28;19934;-74
2022/11/17 12:40:36;;;;;;;;;;;13.90;99.90;;;;;;5097746;28;19912;-73
2022/11/17 12:43:14;;;;;;;;;;;13.80;99.90;;;;;;5097077;28;19915;-73
2022/11/17 12:45:54;;;;;;;;;;;13.80;99.90;;;;;;5097362;28;19937;-74
2022/11/17 12:48:33;;;;;;;;;;;13.70;99.90;;;;;;5096994;28;19912;-72
2022/11/17 12:51:08;;;;;;;;;;;13.70;99.90;;;;;;5078816;28;20339;-73
2022/11/17 12:53:41;;;;;;;;;;;13.60;99.90;;;;;;5078505;28;19968;-72
2022/11/17 12:56:22;;;;;;;;;;;13.60;99.90;;;;;;5078706;28;19908;-72
2022/11/17 12:58:47;;;;;;;;;;;13.50;99.90;;;;;;5097920;28;19915;-73
2022/11/17 13:01:31;;;;;;;;;;;13.40;99.90;;;;;;5096781;28;19912;-73
2022/11/17 13:04:07;;;;;;;;;;;13.30;99.90;;;;;;5096745;28;20297;-75
2022/11/17 13:06:32;;;;;;;;;;;13.10;99.90;;;;;;5078167;28;19912;-72
2022/11/17 13:08:59;;;;;;;;;;;13.00;99.90;;;;;;5096604;28;20088;-78
2022/11/17 13:11:25;;;;;;;;;;;13.00;99.90;;;;;;5077471;28;19995;-80
2022/11/17 13:14:13;;;;;;;;;;;13.00;99.90;;;;;;5062921;28;19912;-78
2022/11/17 13:16:47;;;;;;;;;;;13.10;99.90;;;;;;5075544;28;19962;-79
2022/11/17 13:19:48;;;;;;;;;;;13.20;99.90;;;;;;5058272;28;20390;-81
2022/11/17 13:22:15;;;;;;;;;;;13.30;99.90;;;;;;4994794;28;19953;-80
2022/11/17 13:24:42;;;;;;;;;;;13.20;99.90;;;;;;5062607;28;19937;-84
2022/11/17 13:27:28;;;;;;;;;;;13.20;99.90;;;;;;5076043;28;20015;-81
2022/11/17 13:30:12;;;;;;;;;;;13.20;99.90;;;;;;5075565;28;19912;-78
2022/11/17 13:32:39;;;;;;;;;;;13.10;99.90;;;;;;5057926;28;20427;-79
2022/11/17 13:35:17;;;;;;;;;;;13.20;99.90;;;;;;5076130;28;20355;-79
2022/11/17 13:37:43;;;;;;;;;;;13.10;99.90;;;;;;5075540;28;19912;-80
2022/11/17 13:40:20;;;;;;;;;;;13.10;99.90;;;;;;5076093;28;20282;-81
2022/11/17 13:42:46;;;;;;;;;;;13.20;99.90;;;;;;5077583;28;19908;-79
2022/11/17 13:45:13;;;;;;;;;;;13.20;99.90;;;;;;5075743;28;19920;-78
2022/11/17 13:47:39;;;;;;;;;;;13.10;99.90;;;;;;5077484;28;19923;-79
2022/11/17 13:50:19;;;;;;;;;;;13.10;99.90;;;;;;5094930;28;20313;-79
2022/11/17 13:52:45;;;;;;;;;;;13.10;99.90;;;;;;5095750;28;20409;-83
2022/11/17 13:55:14;;;;;;;;;;;13.20;99.90;;;;;;5077909;28;19957;-79
2022/11/17 13:58:00;;;;;;;;;;;13.20;99.90;;;;;;5095737;28;20011;-79
2022/11/17 14:00:26;;;;;;;;;;;13.10;99.90;;;;;;5093636;28;19912;-82
2022/11/17 14:02:53;;;;;;;;;;;13.20;99.90;;;;;;5094922;28;19934;-82
2022/11/17 14:05:21;;;;;;;;;;;13.20;99.90;;;;;;5065972;28;19912;-78
2022/11/17 14:07:48;;;;;;;;;;;13.10;99.90;;;;;;5075209;28;20358;-79
2022/11/17 14:10:26;;;;;;;;;;;13.10;99.90;;;;;;5075211;28;20333;-82
2022/11/17 14:13:01;;;;;;;;;;;13.10;99.90;;;;;;5075862;28;19996;-80
2022/11/17 14:15:28;;;;;;;;;;;13.10;99.90;;;;;;5075524;28;19944;-82
2022/11/17 14:17:54;;;;;;;;;;;13.10;99.90;;;;;;5086034;28;20002;-81
2022/11/17 14:20:23;;;;;;;;;;;13.10;99.90;;;;;;5095620;28;19958;-78
2022/11/17 14:23:01;;;;;;;;;;;13.10;99.90;;;;;;5096051;28;20281;-79
2022/11/17 14:25:27;;;;;;;;;;;13.00;99.90;;;;;;5095859;28;19971;-74
2022/11/17 14:27:53;;;;;;;;;;;13.00;99.90;;;;;;5094700;28;19916;-80
2022/11/17 14:30:18;;;;;;;;;;;13.00;99.90;;;;;;5096599;28;20341;-78
2022/11/17 14:32:44;;;;;;;;;;;13.00;99.90;;;;;;5083068;28;20390;-81
2022/11/17 14:35:13;;;;;;;;;;;13.00;99.90;;;;;;5095120;28;19995;-79
2022/11/17 14:37:39;;;;;;;;;;;13.00;99.90;;;;;;5095329;28;19908;-79
2022/11/17 14:40:06;;;;;;;;;;;13.00;99.90;;;;;;5095187;28;19956;-79
2022/11/17 14:42:32;;;;;;;;;;;12.90;99.90;;;;;;5095043;28;19908;-79
2022/11/17 14:44:57;;;;;;;;;;;12.90;99.90;;;;;;5094229;28;19915;-79
2022/11/17 14:47:23;;;;;;;;;;;12.90;99.90;;;;;;5075094;28;19923;-83
2022/11/17 14:49:49;;;;;;;;;;;12.80;99.90;;;;;;5076009;28;19954;-85
2022/11/17 14:52:14;;;;;;;;;;;12.80;99.90;;;;;;5075086;28;19921;-81
2022/11/17 14:54:40;;;;;;;;;;;12.70;99.90;;;;;;5075046;28;19912;-78